createdAt,value
2023-04-15T00:02:00.380Z,46.43
2023-04-15T00:04:31.686Z,43.05
2023-04-15T00:07:00.403Z,40.70
2023-04-15T00:09:28.533Z,40.13
2023-04-15T00:11:57.835Z,49.87
2023-04-15T00:14:26.100Z,41.07
2023-04-15T00:16:56.295Z,41.53
2023-04-15T00:19:24.269Z,40.57
2023-04-15T00:21:52.143Z,40.70
2023-04-15T00:24:20.045Z,39.53
2023-04-15T00:26:47.992Z,40.70
2023-04-15T00:29:17.304Z,41.93
2023-04-15T00:31:45.585Z,40.63
2023-04-15T00:34:14.000Z,44.30
2023-04-15T00:36:42.133Z,42.70
2023-04-15T00:39:10.089Z,43.40
2023-04-15T00:41:39.748Z,43.23
2023-04-15T00:44:07.915Z,42.77
2023-04-15T00:46:39.807Z,43.10
2023-04-15T00:49:07.949Z,44.37
2023-04-15T00:51:37.126Z,40.57
2023-04-15T00:54:05.376Z,39.90
2023-04-15T00:56:36.949Z,42.03
2023-04-15T00:59:05.486Z,42.37
2023-04-15T01:01:35.486Z,43.57
2023-04-15T01:04:05.116Z,43.57
2023-04-15T01:06:33.477Z,42.97
2023-04-15T01:09:02.052Z,43.63
2023-04-15T01:11:31.617Z,43.00
2023-04-15T01:14:00.383Z,42.70
2023-04-15T01:16:28.730Z,42.43
2023-04-15T01:18:57.532Z,42.60
2023-04-15T01:21:26.988Z,42.57
2023-04-15T01:23:56.890Z,43.07
2023-04-15T01:26:27.315Z,42.37
2023-04-15T01:28:56.285Z,42.40
2023-04-15T01:31:24.240Z,41.50
2023-04-15T01:33:52.109Z,42.10
2023-04-15T01:36:19.949Z,42.40
2023-04-15T01:38:48.384Z,40.17
2023-04-15T01:41:16.314Z,42.23
2023-04-15T01:43:45.634Z,40.43
2023-04-15T01:46:13.576Z,39.90
2023-04-15T01:48:41.883Z,42.50
2023-04-15T01:51:09.771Z,42.63
2023-04-15T01:53:37.701Z,41.70
2023-04-15T01:56:07.244Z,41.73
2023-04-15T01:58:35.153Z,41.63
2023-04-15T02:01:04.951Z,41.27
2023-04-15T02:03:32.988Z,40.80
2023-04-15T02:06:00.900Z,40.10
2023-04-15T02:08:28.797Z,40.53
2023-04-15T02:10:56.742Z,40.77
2023-04-15T02:13:24.660Z,41.90
2023-04-15T02:15:53.362Z,41.37
2023-04-15T02:18:22.699Z,41.23
2023-04-15T02:20:53.026Z,40.73
2023-04-15T02:23:20.919Z,40.47
2023-04-15T02:25:53.886Z,39.63
2023-04-15T02:28:22.499Z,40.60
2023-04-15T02:30:52.768Z,40.40
2023-04-15T02:33:22.743Z,40.53
2023-04-15T02:35:50.838Z,41.17
2023-04-15T02:38:18.791Z,38.07
2023-04-15T02:40:46.645Z,39.43
2023-04-15T02:43:14.496Z,39.33
2023-04-15T02:45:43.467Z,40.77
2023-04-15T02:48:11.487Z,40.47
2023-04-15T02:50:41.035Z,36.90
2023-04-15T02:53:09.010Z,40.07
2023-04-15T02:55:36.974Z,38.53
2023-04-15T02:58:04.895Z,39.27
2023-04-15T03:00:32.838Z,39.20
2023-04-15T03:03:03.678Z,40.53
2023-04-15T03:05:31.901Z,39.63
2023-04-15T03:08:03.075Z,41.07
2023-04-15T03:10:30.952Z,41.17
2023-04-15T03:12:58.857Z,40.93
2023-04-15T03:15:27.123Z,41.20
2023-04-15T03:17:55.091Z,39.60
2023-04-15T03:20:23.433Z,41.57
2023-04-15T03:22:51.346Z,40.40
2023-04-15T03:25:20.662Z,39.80
2023-04-15T03:27:48.595Z,40.73
2023-04-15T03:30:16.551Z,38.50
2023-04-15T03:32:44.525Z,41.47
2023-04-15T03:35:12.503Z,40.08
2023-04-15T03:37:40.581Z,40.57
2023-04-15T03:40:09.834Z,41.97
2023-04-15T03:42:39.094Z,42.83
2023-04-15T03:45:08.669Z,41.20
2023-04-15T03:47:36.586Z,40.13
2023-04-15T03:50:04.743Z,38.80
2023-04-15T03:52:32.648Z,38.60
2023-04-15T03:55:00.688Z,38.00
2023-04-15T03:57:28.690Z,37.53
2023-04-15T03:59:58.030Z,39.87
2023-04-15T04:02:26.127Z,39.30
2023-04-15T04:04:54.386Z,39.57
2023-04-15T04:07:24.589Z,39.57
2023-04-15T04:09:52.523Z,41.77
2023-04-15T04:12:20.692Z,39.97
2023-04-15T04:14:48.600Z,39.43
2023-04-15T04:17:18.027Z,40.87
2023-04-15T04:19:46.448Z,41.03
2023-04-15T04:22:14.297Z,41.47
2023-04-15T04:24:42.241Z,42.58
2023-04-15T04:27:10.215Z,41.17
2023-04-15T04:29:38.082Z,40.87
2023-04-15T04:32:06.286Z,54.77
2023-04-15T04:34:35.684Z,41.23
2023-04-15T04:37:03.547Z,40.87
2023-04-15T04:39:31.564Z,41.87
2023-04-15T04:41:59.548Z,51.90
2023-04-15T04:44:27.393Z,41.43
2023-04-15T04:46:55.546Z,40.40
2023-04-15T04:49:23.584Z,40.23
2023-04-15T04:51:53.484Z,40.97
2023-04-15T04:54:21.385Z,37.13
2023-04-15T04:56:49.328Z,39.65
2023-04-15T04:59:18.987Z,39.77
2023-04-15T05:01:47.424Z,36.63
2023-04-15T05:04:15.691Z,39.03
2023-04-15T05:06:43.763Z,37.57
2023-04-15T05:09:13.086Z,35.77
2023-04-15T05:11:41.109Z,38.43
2023-04-15T05:14:08.991Z,36.67
2023-04-15T05:16:36.953Z,37.13
2023-04-15T05:19:04.860Z,37.17
2023-04-15T05:21:32.847Z,37.33
2023-04-15T05:24:00.774Z,37.67
2023-04-15T05:26:30.079Z,37.67
2023-04-15T05:28:57.981Z,37.17
2023-04-15T05:31:26.102Z,37.93
2023-04-15T05:33:54.138Z,35.70
2023-04-15T05:36:22.174Z,38.40
2023-04-15T05:38:50.135Z,35.70
2023-04-15T05:41:19.840Z,36.80
2023-04-15T05:43:49.336Z,35.63
2023-04-15T05:46:17.477Z,37.87
2023-04-15T05:48:45.543Z,37.20
2023-04-15T05:51:13.624Z,36.20
2023-04-15T05:53:42.137Z,36.33
2023-04-15T05:56:10.058Z,35.30
2023-04-15T05:58:38.012Z,38.63
2023-04-15T06:01:07.451Z,35.77
2023-04-15T06:03:35.486Z,38.17
2023-04-15T06:06:03.654Z,37.23
2023-04-15T06:08:31.722Z,36.90
2023-04-15T06:11:00.428Z,37.53
2023-04-15T06:13:28.358Z,37.23
2023-04-15T06:15:56.292Z,37.87
2023-04-15T06:18:25.762Z,37.23
2023-04-15T06:20:53.714Z,36.23
2023-04-15T06:23:22.096Z,37.05
2023-04-15T06:25:50.126Z,38.60
2023-04-15T06:28:18.212Z,37.30
2023-04-15T06:30:46.259Z,36.60
2023-04-15T06:33:14.417Z,37.00
2023-04-15T06:35:43.928Z,37.40
2023-04-15T06:38:11.900Z,38.00
2023-04-15T06:40:40.047Z,39.93
2023-04-15T06:43:07.997Z,40.40
2023-04-15T06:45:36.015Z,40.63
2023-04-15T06:48:03.978Z,38.85
2023-04-15T06:50:32.532Z,41.22
2023-04-15T06:53:02.085Z,41.60
2023-04-15T06:55:29.947Z,41.22
2023-04-15T06:57:57.864Z,40.80
2023-04-15T07:00:26.149Z,39.85
2023-04-15T07:02:55.184Z,41.90
2023-04-15T07:05:23.089Z,43.13
2023-04-15T07:07:51.299Z,42.47
2023-04-15T07:10:20.803Z,42.50
2023-04-15T07:12:50.610Z,43.13
2023-04-15T07:15:18.491Z,42.83
2023-04-15T07:17:46.421Z,41.42
2023-04-15T07:20:14.673Z,42.80
2023-04-15T07:22:42.537Z,44.10
2023-04-15T07:25:11.059Z,43.50
2023-04-15T07:27:40.688Z,43.90
2023-04-15T07:30:09.759Z,43.90
2023-04-15T07:32:37.852Z,45.17
2023-04-15T07:35:06.363Z,42.88
2023-04-15T07:37:34.317Z,44.40
2023-04-15T07:40:02.337Z,43.40
2023-04-15T07:42:30.474Z,46.25
2023-04-15T07:44:59.838Z,42.90
2023-04-15T07:47:28.121Z,44.45
2023-04-15T07:49:56.045Z,44.20
2023-04-15T07:52:23.939Z,41.53
2023-04-15T07:54:51.918Z,41.40
2023-04-15T07:57:19.939Z,43.60
2023-04-15T07:59:47.945Z,43.78
2023-04-15T08:02:17.403Z,45.80
2023-04-15T08:04:45.449Z,44.55
2023-04-15T08:07:13.553Z,43.80
2023-04-15T08:09:41.926Z,44.40
2023-04-15T08:12:12.448Z,45.70
2023-04-15T08:14:40.593Z,44.50
2023-04-15T08:17:08.449Z,44.70
2023-04-15T08:19:37.680Z,43.25
2023-04-15T08:22:05.628Z,45.28
2023-04-15T08:24:38.543Z,45.03
2023-04-15T08:27:07.981Z,45.78
2023-04-15T08:29:36.165Z,45.30
2023-04-15T08:32:04.332Z,46.45
2023-04-15T08:34:32.335Z,45.30
2023-04-15T08:37:01.646Z,45.20
2023-04-15T08:39:29.604Z,45.47
2023-04-15T08:42:02.542Z,46.50
2023-04-15T08:44:31.715Z,44.95
2023-04-15T08:47:02.889Z,45.30
2023-04-15T08:49:31.503Z,45.92
2023-04-15T08:52:01.863Z,47.17
2023-04-15T08:54:30.236Z,45.40
2023-04-15T08:56:59.582Z,44.58
2023-04-15T08:59:27.674Z,46.20
2023-04-15T09:01:56.657Z,46.92
2023-04-15T09:04:24.566Z,45.90
2023-04-15T09:06:53.165Z,46.60
2023-04-15T09:09:22.675Z,45.90
2023-04-15T09:11:51.484Z,46.35
2023-04-15T09:14:19.427Z,44.30
2023-04-15T09:17:01.904Z,46.30
2023-04-15T09:19:30.513Z,46.47
2023-04-15T09:22:00.080Z,47.05
2023-04-15T09:24:37.426Z,46.03
2023-04-15T09:27:06.075Z,45.10
2023-04-15T09:29:34.149Z,45.42
2023-04-15T09:32:12.295Z,46.50
2023-04-15T09:34:40.581Z,45.40
2023-04-15T09:37:10.880Z,46.10
2023-04-15T09:39:51.089Z,46.58
2023-04-15T09:42:24.501Z,46.90
2023-04-15T09:44:53.183Z,45.60
2023-04-15T09:47:32.168Z,46.10
2023-04-15T09:50:01.805Z,46.90
2023-04-15T09:52:30.425Z,47.72
2023-04-15T09:55:01.513Z,46.60
2023-04-15T09:57:36.231Z,45.70
2023-04-15T10:00:05.339Z,46.40
2023-04-15T10:02:33.572Z,47.90
2023-04-15T10:05:02.439Z,46.10
2023-04-15T10:07:30.929Z,47.13
2023-04-15T10:10:02.280Z,46.40
2023-04-15T10:12:33.397Z,48.20
2023-04-15T10:15:04.858Z,46.55
2023-04-15T10:17:35.609Z,46.67
2023-04-15T10:20:05.885Z,46.70
2023-04-15T10:22:34.340Z,47.83
2023-04-15T10:25:04.624Z,46.40
2023-04-15T10:27:33.761Z,45.90
2023-04-15T10:30:03.664Z,46.90
2023-04-15T10:32:32.484Z,47.60
2023-04-15T10:35:01.280Z,45.70
2023-04-15T10:37:35.980Z,46.40
2023-04-15T10:40:25.561Z,46.65
2023-04-15T10:42:53.570Z,46.00
2023-04-15T10:45:21.460Z,46.33
2023-04-15T10:47:55.032Z,46.70
2023-04-15T10:50:23.242Z,46.40
2023-04-15T10:52:52.678Z,48.88
2023-04-15T10:55:23.592Z,45.80
2023-04-15T10:57:55.050Z,46.00
2023-04-15T11:00:27.108Z,46.50
2023-04-15T11:02:57.096Z,47.83
2023-04-15T11:05:54.543Z,46.60
2023-04-15T11:08:55.865Z,46.60
2023-04-15T11:11:25.200Z,46.70
2023-04-15T11:13:54.188Z,46.55
2023-04-15T11:16:22.907Z,46.60
2023-04-15T11:18:56.090Z,46.42
2023-04-15T11:21:28.058Z,46.90
2023-04-15T11:23:55.982Z,45.70
2023-04-15T11:26:27.690Z,46.63
2023-04-15T11:28:55.944Z,46.90
2023-04-15T11:31:23.962Z,46.47
2023-04-15T11:33:56.621Z,46.70
2023-04-15T11:36:27.183Z,46.80
2023-04-15T11:38:55.468Z,46.80
2023-04-15T11:41:25.038Z,45.60
2023-04-15T11:43:53.450Z,44.80
2023-04-15T11:46:22.431Z,45.13
2023-04-15T11:48:50.539Z,46.97
2023-04-15T11:51:20.770Z,46.60
2023-04-15T11:53:50.442Z,47.00
2023-04-15T11:56:20.151Z,46.70
2023-04-15T11:58:52.719Z,46.40
2023-04-15T12:01:20.784Z,46.90
2023-04-15T12:03:50.279Z,46.28
2023-04-15T12:06:20.030Z,46.55
2023-04-15T12:09:02.673Z,47.00
2023-04-15T12:11:36.412Z,46.90
2023-04-15T12:14:08.395Z,46.70
2023-04-15T12:16:49.052Z,45.83
2023-04-15T12:19:23.443Z,46.85
2023-04-15T12:21:51.712Z,46.50
2023-04-15T12:24:22.722Z,46.60
2023-04-15T12:26:52.495Z,46.60
2023-04-15T12:29:26.603Z,45.80
2023-04-15T12:31:56.005Z,47.53
2023-04-15T12:34:32.042Z,46.17
2023-04-15T12:37:01.070Z,46.50
2023-04-15T12:39:31.139Z,46.00
2023-04-15T12:42:00.083Z,47.40
2023-04-15T12:44:30.013Z,46.50
2023-04-15T12:46:58.086Z,46.60
2023-04-15T12:49:26.703Z,46.80
2023-04-15T12:51:56.409Z,46.38
2023-04-15T12:54:24.292Z,45.50
2023-04-15T12:56:52.743Z,45.42
2023-04-15T12:59:21.047Z,45.63
2023-04-15T13:01:50.815Z,46.28
2023-04-15T13:04:18.971Z,46.10
2023-04-15T13:06:46.904Z,45.00
2023-04-15T13:09:14.932Z,45.40
2023-04-15T13:11:42.894Z,45.47
2023-04-15T13:14:11.542Z,45.65
2023-04-15T13:16:39.899Z,45.90
2023-04-15T13:19:09.304Z,46.42
2023-04-15T13:21:37.201Z,45.60
2023-04-15T13:24:07.090Z,45.10
2023-04-15T13:26:35.275Z,45.60
2023-04-15T13:29:03.133Z,46.00
2023-04-15T13:31:31.067Z,45.00
2023-04-15T13:33:59.132Z,45.20
2023-04-15T13:36:28.364Z,45.10
2023-04-15T13:38:56.935Z,45.40
2023-04-15T13:41:24.796Z,45.10
2023-04-15T13:43:52.673Z,44.92
2023-04-15T13:46:20.525Z,44.50
2023-04-15T13:48:48.832Z,44.80
2023-04-15T13:51:16.702Z,44.20
2023-04-15T13:53:45.927Z,45.20
2023-04-15T13:56:13.974Z,44.50
2023-04-15T13:58:42.374Z,44.45
2023-04-15T14:01:10.333Z,44.40
2023-04-15T14:03:38.748Z,44.40
2023-04-15T14:06:07.032Z,44.58
2023-04-15T14:08:35.015Z,44.40
2023-04-15T14:11:04.291Z,44.30
2023-04-15T14:13:32.187Z,44.20
2023-04-15T14:16:00.095Z,43.90
2023-04-15T14:18:27.991Z,45.00
2023-04-15T14:20:55.900Z,44.40
2023-04-15T14:23:23.904Z,42.90
2023-04-15T14:25:51.850Z,43.90
2023-04-15T14:28:21.105Z,43.10
2023-04-15T14:30:48.943Z,44.10
2023-04-15T14:33:17.015Z,44.90
2023-04-15T14:35:44.842Z,45.25
2023-04-15T14:38:12.738Z,44.40
2023-04-15T14:40:41.755Z,42.00
2023-04-15T14:43:09.740Z,42.83
2023-04-15T14:45:42.057Z,44.22
2023-04-15T14:48:12.659Z,44.70
2023-04-15T14:50:41.287Z,44.10
2023-04-15T14:53:09.144Z,43.90
2023-04-15T14:55:37.010Z,42.50
2023-04-15T14:58:04.888Z,43.93
2023-04-15T15:00:32.844Z,44.00
2023-04-15T15:03:02.308Z,44.40
2023-04-15T15:05:30.303Z,44.10
2023-04-15T15:07:58.145Z,42.45
2023-04-15T15:10:39.424Z,44.13
2023-04-15T15:13:14.067Z,44.30
2023-04-15T15:15:42.120Z,44.10
2023-04-15T15:18:11.683Z,44.60
2023-04-15T15:20:39.611Z,44.30
2023-04-15T15:23:07.493Z,43.47
2023-04-15T15:25:35.405Z,43.70
2023-04-15T15:28:03.345Z,43.90
2023-04-15T15:30:31.468Z,43.50
2023-04-15T15:32:59.455Z,42.20
2023-04-15T15:35:28.778Z,44.22
2023-04-15T15:37:56.641Z,44.10
2023-04-15T15:40:24.885Z,44.10
2023-04-15T15:42:53.207Z,44.70
2023-04-15T15:45:21.157Z,43.20
2023-04-15T15:47:49.225Z,42.00
2023-04-15T15:50:17.173Z,44.10
2023-04-15T15:52:46.431Z,44.70
2023-04-15T15:55:14.305Z,42.53
2023-04-15T15:57:42.155Z,43.80
2023-04-15T16:00:12.806Z,43.20
2023-04-15T16:05:12.273Z,44.17
2023-04-15T16:07:40.206Z,45.30
2023-04-15T16:10:11.035Z,43.30
2023-04-15T16:12:38.991Z,43.97
2023-04-15T16:15:08.075Z,42.30
2023-04-15T16:17:36.054Z,43.10
2023-04-15T16:20:05.831Z,43.90
2023-04-15T16:22:34.181Z,41.20
2023-04-15T16:25:02.489Z,42.50
2023-04-15T16:27:32.200Z,42.10
2023-04-15T16:30:00.307Z,43.35
2023-04-15T16:32:28.201Z,45.70
2023-04-15T16:34:56.691Z,41.15
2023-04-15T16:37:24.561Z,40.27
2023-04-15T16:39:52.485Z,42.25
2023-04-15T16:42:20.419Z,42.78
2023-04-15T16:44:49.693Z,41.88
2023-04-15T16:47:17.616Z,42.60
2023-04-15T16:49:45.438Z,40.07
2023-04-15T16:52:13.277Z,41.85
2023-04-15T16:54:41.596Z,39.77
2023-04-15T16:57:09.669Z,39.80
2023-04-15T16:59:37.532Z,39.97
2023-04-15T17:02:06.820Z,47.87
2023-04-15T17:04:34.980Z,39.87
2023-04-15T17:07:03.147Z,38.80
2023-04-15T17:09:31.077Z,39.43
2023-04-15T17:11:59.076Z,46.30
2023-04-15T17:14:28.244Z,39.50
2023-04-15T17:16:56.084Z,38.33
2023-04-15T17:19:26.680Z,36.70
2023-04-15T17:21:55.148Z,41.87
2023-04-15T17:24:23.223Z,36.90
2023-04-15T17:26:51.078Z,38.20
2023-04-15T17:29:18.921Z,37.50
2023-04-15T17:31:46.829Z,38.03
2023-04-15T17:34:15.999Z,40.03
2023-04-15T17:36:45.447Z,38.93
2023-04-15T17:39:14.923Z,39.83
2023-04-15T17:41:42.760Z,38.07
2023-04-15T17:44:10.657Z,37.17
2023-04-15T17:46:38.666Z,36.57
2023-04-15T17:49:06.920Z,39.10
2023-04-15T17:51:34.970Z,37.97
2023-04-15T17:54:04.522Z,36.00
2023-04-15T17:56:32.709Z,35.90
2023-04-15T17:59:02.326Z,36.53
2023-04-15T18:01:30.547Z,39.07
2023-04-15T18:03:58.528Z,36.63
2023-04-15T18:06:27.358Z,36.00
2023-04-15T18:08:56.029Z,35.17
2023-04-15T18:11:25.366Z,37.37
2023-04-15T18:13:53.200Z,35.63
2023-04-15T18:16:21.160Z,36.03
2023-04-15T18:18:49.080Z,36.53
2023-04-15T18:21:16.910Z,35.57
2023-04-15T18:23:44.817Z,36.33
2023-04-15T18:26:12.886Z,37.33
2023-04-15T18:28:42.125Z,38.80
2023-04-15T18:31:10.062Z,37.30
2023-04-15T18:33:37.960Z,35.90
2023-04-15T18:36:05.982Z,36.27
2023-04-15T18:38:33.924Z,38.80
2023-04-15T18:41:01.761Z,36.80
2023-04-15T18:43:29.622Z,37.03
2023-04-15T18:45:59.004Z,35.53
2023-04-15T18:48:27.284Z,36.83
2023-04-15T18:50:55.240Z,35.70
2023-04-15T18:53:23.081Z,35.73
2023-04-15T18:55:50.909Z,36.17
2023-04-15T18:58:18.800Z,35.63
2023-04-15T19:00:46.692Z,35.77
2023-04-15T19:03:15.921Z,36.27
2023-04-15T19:05:44.356Z,36.37
2023-04-15T19:08:12.293Z,36.57
2023-04-15T19:10:40.305Z,35.53
2023-04-15T19:13:08.174Z,35.40
2023-04-15T19:15:36.013Z,34.10
2023-04-15T19:18:05.243Z,35.80
2023-04-15T19:20:37.851Z,35.30
2023-04-15T19:23:07.361Z,35.40
2023-04-15T19:25:35.288Z,35.63
2023-04-15T19:28:03.192Z,35.33
2023-04-15T19:30:32.320Z,35.77
2023-04-15T19:33:00.309Z,34.65
2023-04-15T19:35:28.320Z,35.40
2023-04-15T19:37:57.582Z,35.40
2023-04-15T19:40:25.434Z,38.40
2023-04-15T19:42:53.324Z,36.13
2023-04-15T19:45:21.162Z,35.85
2023-04-15T19:47:49.209Z,38.10
2023-04-15T19:50:17.705Z,37.00
2023-04-15T19:52:45.579Z,36.83
2023-04-15T19:55:14.819Z,35.90
2023-04-15T19:57:42.687Z,37.73
2023-04-15T20:00:11.592Z,37.05
2023-04-15T20:02:39.653Z,39.43
2023-04-15T20:05:09.772Z,36.27
2023-04-15T20:07:39.548Z,39.85
2023-04-15T20:10:08.564Z,39.30
2023-04-15T20:12:51.327Z,38.85
2023-04-15T20:15:23.697Z,39.08
2023-04-15T20:17:51.881Z,39.80
2023-04-15T20:20:19.774Z,37.13
2023-04-15T20:22:47.944Z,39.10
2023-04-15T20:25:15.846Z,40.40
2023-04-15T20:27:45.668Z,40.20
2023-04-15T20:30:13.575Z,40.10
2023-04-15T20:32:41.555Z,40.35
2023-04-15T20:35:09.710Z,39.88
2023-04-15T20:37:40.260Z,39.40
2023-04-15T20:40:09.277Z,40.08
2023-04-15T20:42:37.156Z,42.70
2023-04-15T20:45:07.993Z,40.15
2023-04-15T20:47:35.874Z,39.80
2023-04-15T20:50:03.928Z,40.60
2023-04-15T20:52:31.793Z,41.20
2023-04-15T20:54:59.664Z,38.85
2023-04-15T20:57:29.994Z,40.00
2023-04-15T20:59:57.891Z,37.92
2023-04-15T21:02:27.309Z,43.20
2023-04-15T21:04:55.284Z,39.75
2023-04-15T21:07:23.136Z,46.03
2023-04-15T21:09:51.014Z,40.83
2023-04-15T21:12:18.998Z,43.13
2023-04-15T21:14:46.865Z,38.53
2023-04-15T21:17:14.713Z,41.72
2023-04-15T21:19:44.311Z,44.05
2023-04-15T21:22:12.145Z,47.17
2023-04-15T21:24:40.058Z,41.45
2023-04-15T21:27:07.957Z,42.20
2023-04-15T21:29:35.895Z,42.33
2023-04-15T21:32:03.824Z,45.78
2023-04-15T21:34:31.783Z,41.15
2023-04-15T21:37:01.038Z,41.92
2023-04-15T21:39:28.902Z,43.88
2023-04-15T21:41:57.878Z,42.38
2023-04-15T21:44:25.895Z,41.80
2023-04-15T21:46:53.828Z,41.40
2023-04-15T21:49:23.192Z,40.42
2023-04-15T21:51:52.133Z,44.72
2023-04-15T21:54:21.386Z,41.47
2023-04-15T21:56:49.644Z,41.00
2023-04-15T21:59:17.485Z,41.30
2023-04-15T22:01:45.538Z,43.07
2023-04-15T22:04:13.635Z,38.83
2023-04-15T22:06:41.606Z,39.17
2023-04-15T22:09:12.020Z,39.67
2023-04-15T22:11:42.014Z,40.47
2023-04-15T22:14:10.494Z,40.75
2023-04-15T22:16:38.441Z,40.72
2023-04-15T22:19:06.617Z,39.80
2023-04-15T22:21:34.582Z,40.40
2023-04-15T22:24:38.869Z,40.63
2023-04-15T22:26:51.813Z,38.40
2023-04-15T22:29:19.730Z,41.22
2023-04-15T22:31:47.666Z,41.28
2023-04-15T22:34:21.068Z,40.97
2023-04-15T22:36:48.962Z,41.00
2023-04-15T22:39:17.165Z,42.58
2023-04-15T22:41:45.043Z,41.75
2023-04-15T22:44:14.271Z,39.63
2023-04-15T22:46:42.397Z,40.90
2023-04-15T22:49:11.375Z,40.42
2023-04-15T22:51:39.252Z,40.80
2023-04-15T22:54:07.109Z,39.80
2023-04-15T22:56:35.004Z,40.38
2023-04-15T22:59:02.872Z,41.30
2023-04-15T23:01:32.325Z,40.30
2023-04-15T23:04:08.156Z,39.70
2023-04-15T23:06:37.339Z,40.35
2023-04-15T23:09:05.497Z,40.25
2023-04-15T23:11:33.371Z,40.20
2023-04-15T23:14:01.288Z,41.97
2023-04-15T23:16:29.218Z,41.55
2023-04-15T23:18:58.442Z,40.53
2023-04-15T23:21:27.278Z,40.85
2023-04-15T23:23:55.306Z,40.05
2023-04-15T23:26:23.191Z,38.70
2023-04-15T23:28:51.167Z,40.58
2023-04-15T23:31:19.164Z,41.20
2023-04-15T23:33:47.113Z,39.05
2023-04-15T23:36:16.380Z,42.00
2023-04-15T23:38:44.322Z,41.38
2023-04-15T23:41:12.274Z,38.60
2023-04-15T23:43:40.240Z,40.40
2023-04-15T23:46:08.503Z,39.37
2023-04-15T23:48:36.366Z,42.60
2023-04-15T23:51:04.544Z,40.88
2023-04-15T23:53:33.908Z,40.63
2023-04-15T23:56:01.904Z,41.00
2023-04-15T23:58:29.761Z,41.05
